createdAt,value
2023-03-21T00:02:17.050Z,11.07
2023-03-21T00:07:38.941Z,14.73
2023-03-21T00:13:13.015Z,11.90
2023-03-21T00:18:55.822Z,11.90
2023-03-21T00:24:23.503Z,12.63
2023-03-21T00:29:49.454Z,15.10
2023-03-21T00:35:51.278Z,12.10
2023-03-21T00:41:02.013Z,10.23
2023-03-21T00:47:06.504Z,12.27
2023-03-21T00:52:57.505Z,10.93
2023-03-21T00:58:32.776Z,9.97
2023-03-21T01:04:22.479Z,10.63
2023-03-21T01:09:46.378Z,10.40
2023-03-21T01:15:08.382Z,9.03
2023-03-21T01:20:30.377Z,8.33
2023-03-21T01:26:16.724Z,5.87
2023-03-21T01:31:59.272Z,6.20
2023-03-21T01:37:50.139Z,5.43
2023-03-21T01:43:44.985Z,7.40
2023-03-21T01:49:21.198Z,7.93
2023-03-21T01:54:48.201Z,8.20
2023-03-21T02:00:12.989Z,5.93
2023-03-21T02:06:25.837Z,5.50
2023-03-21T02:12:00.536Z,7.20
2023-03-21T02:18:07.409Z,8.73
2023-03-21T02:24:09.576Z,8.53
2023-03-21T02:29:53.614Z,6.90
2023-03-21T02:35:52.413Z,7.47
2023-03-21T02:41:29.666Z,8.27
2023-03-21T02:47:42.056Z,8.67
2023-03-21T02:53:23.042Z,12.80
2023-03-21T02:59:11.629Z,10.67
2023-03-21T03:04:49.437Z,10.47
2023-03-21T03:10:38.179Z,9.83
2023-03-21T03:16:49.015Z,13.20
2023-03-21T03:22:44.507Z,11.30
2023-03-21T03:28:20.986Z,11.17
2023-03-21T03:34:11.501Z,13.40
2023-03-21T03:39:46.102Z,8.57
2023-03-21T03:45:09.694Z,12.83
2023-03-21T03:50:58.753Z,12.07
2023-03-21T03:57:03.507Z,10.87
2023-03-21T04:02:50.364Z,14.43
2023-03-21T04:08:17.420Z,13.53
2023-03-21T04:13:49.957Z,13.80
2023-03-21T04:19:26.887Z,14.70
2023-03-21T04:24:49.395Z,12.60
2023-03-21T04:30:12.365Z,11.37
2023-03-21T04:35:45.834Z,13.73
2023-03-21T04:41:25.443Z,14.73
2023-03-21T04:46:54.864Z,12.80
2023-03-21T04:52:38.860Z,13.77
2023-03-21T04:58:18.873Z,12.33
2023-03-21T05:04:05.992Z,13.93
2023-03-21T05:10:02.580Z,11.87
2023-03-21T05:15:45.180Z,12.50
2023-03-21T05:21:10.815Z,14.57
2023-03-21T05:26:42.571Z,15.53
2023-03-21T05:32:26.614Z,16.60
2023-03-21T05:37:56.772Z,17.43
2023-03-21T05:43:40.484Z,16.73
2023-03-21T05:49:21.628Z,17.23
2023-03-21T05:54:53.650Z,11.97
2023-03-21T06:00:22.022Z,19.33
2023-03-21T06:06:07.923Z,13.60
2023-03-21T06:12:15.840Z,16.73
2023-03-21T06:18:05.414Z,14.67
2023-03-21T06:23:43.308Z,23.43
2023-03-21T06:29:13.297Z,12.30
2023-03-21T06:34:43.028Z,13.30
2023-03-21T06:40:09.806Z,13.87
2023-03-21T06:45:31.421Z,14.90
2023-03-21T06:51:15.720Z,11.83
2023-03-21T06:57:24.431Z,18.63
2023-03-21T07:03:08.189Z,15.77
2023-03-21T07:08:35.621Z,14.77
2023-03-21T07:14:12.014Z,12.47
2023-03-21T07:19:34.162Z,19.67
2023-03-21T07:25:04.672Z,11.63
2023-03-21T07:30:32.908Z,12.30
2023-03-21T07:42:16.625Z,11.70
2023-03-21T07:48:14.027Z,13.77
2023-03-21T07:53:51.682Z,12.43
2023-03-21T07:59:20.243Z,13.03
2023-03-21T08:05:07.005Z,19.87
2023-03-21T08:10:42.083Z,14.80
2023-03-21T08:16:37.041Z,17.30
2023-03-21T08:22:23.522Z,14.33
2023-03-21T08:28:07.451Z,12.50
2023-03-21T08:33:34.060Z,15.93
2023-03-21T08:39:06.934Z,14.47
2023-03-21T08:44:31.719Z,17.00
2023-03-21T08:49:53.807Z,18.37
2023-03-21T08:55:17.175Z,16.67
2023-03-21T09:00:39.062Z,13.47
2023-03-21T09:06:01.012Z,9.80
2023-03-21T09:11:32.621Z,12.03
2023-03-21T09:17:15.836Z,13.30
2023-03-21T09:23:00.697Z,8.37
2023-03-21T09:28:33.281Z,8.83
2023-03-21T09:34:16.448Z,9.47
2023-03-21T09:39:41.372Z,11.93
2023-03-21T09:45:43.482Z,14.23
2023-03-21T09:51:34.356Z,10.93
2023-03-21T09:57:15.138Z,10.83
2023-03-21T10:02:59.453Z,13.33
2023-03-21T10:08:36.716Z,9.83
2023-03-21T10:14:31.985Z,8.57
2023-03-21T10:20:16.976Z,6.17
2023-03-21T10:25:42.582Z,6.37
2023-03-21T10:31:28.620Z,5.50
2023-03-21T10:37:16.840Z,7.30
2023-03-21T10:42:58.738Z,4.43
2023-03-21T10:48:47.251Z,5.37
2023-03-21T10:54:28.569Z,5.33
2023-03-21T11:00:02.711Z,3.70
2023-03-21T11:05:39.114Z,7.30
2023-03-21T11:11:11.854Z,3.03
2023-03-21T11:16:57.832Z,3.60
2023-03-21T11:22:50.624Z,4.00
2023-03-21T11:28:52.252Z,3.57
2023-03-21T11:34:43.181Z,4.60
2023-03-21T11:40:33.584Z,3.80
2023-03-21T11:46:29.234Z,4.13
2023-03-21T11:52:28.268Z,2.77
2023-03-21T11:58:39.108Z,5.27
2023-03-21T12:04:35.277Z,6.07
2023-03-21T12:10:30.140Z,4.00
2023-03-21T12:16:29.508Z,4.80
2023-03-21T12:22:18.741Z,4.00
2023-03-21T12:28:40.136Z,6.13
2023-03-21T12:34:23.138Z,5.70
2023-03-21T12:39:49.004Z,5.27
2023-03-21T12:45:21.946Z,4.57
2023-03-21T12:50:44.521Z,3.13
2023-03-21T12:56:23.985Z,3.13
2023-03-21T13:02:15.678Z,2.93
2023-03-21T13:07:49.807Z,3.47
2023-03-21T13:13:35.628Z,7.47
2023-03-21T13:19:23.522Z,4.73
2023-03-21T13:24:55.342Z,4.03
2023-03-21T13:30:26.401Z,5.03
2023-03-21T13:36:29.551Z,4.40
2023-03-21T13:42:16.880Z,3.30
2023-03-21T13:48:03.629Z,4.53
2023-03-21T13:53:44.624Z,3.50
2023-03-21T13:59:17.750Z,5.20
2023-03-21T14:05:06.597Z,4.30
2023-03-21T14:11:18.900Z,5.70
2023-03-21T14:17:06.167Z,6.30
2023-03-21T14:22:34.241Z,7.07
2023-03-21T14:28:06.810Z,5.00
2023-03-21T14:33:37.096Z,7.27
2023-03-21T14:39:16.749Z,5.67
2023-03-21T14:44:54.033Z,6.80
2023-03-21T14:50:16.814Z,3.47
2023-03-21T14:56:12.093Z,3.53
2023-03-21T15:02:14.679Z,3.30
2023-03-21T15:07:39.580Z,4.00
2023-03-21T15:13:35.357Z,9.27
2023-03-21T15:19:09.491Z,3.90
2023-03-21T15:24:39.926Z,4.97
2023-03-21T15:30:01.904Z,6.30
2023-03-21T15:35:37.832Z,6.10
2023-03-21T15:41:30.099Z,4.50
2023-03-21T15:47:21.967Z,6.13
2023-03-21T15:53:10.532Z,5.47
2023-03-21T15:58:50.523Z,5.03
2023-03-21T16:04:41.239Z,15.13
2023-03-21T16:10:39.749Z,10.43
2023-03-21T16:16:20.448Z,4.00
2023-03-21T16:22:06.589Z,4.20
2023-03-21T16:27:59.874Z,6.60
2023-03-21T16:33:30.168Z,8.53
2023-03-21T16:38:53.879Z,4.10
2023-03-21T16:44:15.883Z,7.23
2023-03-21T16:49:37.697Z,5.00
2023-03-21T16:55:01.834Z,5.23
2023-03-21T17:00:27.360Z,5.17
2023-03-21T17:05:48.651Z,8.83
2023-03-21T17:11:20.333Z,4.80
2023-03-21T17:16:43.234Z,7.33
2023-03-21T17:22:05.035Z,4.47
2023-03-21T17:27:27.298Z,5.20
2023-03-21T17:32:50.625Z,4.40
2023-03-21T17:38:17.504Z,6.93
2023-03-21T17:43:39.395Z,6.60
2023-03-21T17:49:00.797Z,7.27
2023-03-21T17:54:22.490Z,7.10
2023-03-21T17:59:43.863Z,7.87
2023-03-21T18:05:06.060Z,5.87
2023-03-21T18:10:28.689Z,9.60
2023-03-21T18:15:50.969Z,6.20
2023-03-21T18:21:19.622Z,4.30
2023-03-21T18:26:42.813Z,6.53
2023-03-21T18:32:07.719Z,4.27
2023-03-21T18:37:35.393Z,4.20
2023-03-21T18:43:49.998Z,9.83
2023-03-21T18:48:39.369Z,5.63
2023-03-21T18:54:02.010Z,7.90
2023-03-21T18:59:23.710Z,7.97
2023-03-21T19:04:45.602Z,7.60
2023-03-21T19:10:17.588Z,7.97
2023-03-21T19:15:41.350Z,8.83
2023-03-21T19:21:03.709Z,10.70
2023-03-21T19:26:26.136Z,8.97
2023-03-21T19:31:51.220Z,9.77
2023-03-21T19:37:12.763Z,8.77
2023-03-21T19:42:36.462Z,11.57
2023-03-21T19:47:58.017Z,13.17
2023-03-21T19:53:20.107Z,10.77
2023-03-21T19:58:42.525Z,11.00
2023-03-21T20:04:04.359Z,10.90
2023-03-21T20:09:57.291Z,9.90
2023-03-21T20:15:16.978Z,12.17
2023-03-21T20:20:40.224Z,9.37
2023-03-21T20:26:08.200Z,10.53
2023-03-21T20:31:29.863Z,9.30
2023-03-21T20:36:51.603Z,8.53
2023-03-21T20:42:13.192Z,6.70
2023-03-21T20:47:35.477Z,7.53
2023-03-21T20:53:06.957Z,8.03
2023-03-21T20:58:57.136Z,8.47
2023-03-21T21:04:19.377Z,9.07
2023-03-21T21:09:40.892Z,9.67
2023-03-21T21:15:02.853Z,9.70
2023-03-21T21:20:25.347Z,9.20
2023-03-21T21:25:53.453Z,10.27
2023-03-21T21:31:17.330Z,10.13
2023-03-21T21:36:39.024Z,11.00
2023-03-21T21:42:00.593Z,11.00
2023-03-21T21:47:22.191Z,10.03
2023-03-21T21:52:44.120Z,12.23
2023-03-21T21:58:08.529Z,16.87
2023-03-21T22:03:41.127Z,12.47
2023-03-21T22:09:04.656Z,13.17
2023-03-21T22:14:26.376Z,13.73
2023-03-21T22:20:02.622Z,13.30
2023-03-21T22:25:27.444Z,14.83
2023-03-21T22:30:49.431Z,16.57
2023-03-21T22:36:11.288Z,11.97
2023-03-21T22:41:32.918Z,16.70
2023-03-21T22:46:54.471Z,12.77
2023-03-21T22:52:16.195Z,17.17
2023-03-21T22:57:37.666Z,16.97
2023-03-21T23:03:00.012Z,16.57
2023-03-21T23:08:21.625Z,16.07
2023-03-21T23:13:46.848Z,17.47
2023-03-21T23:19:12.437Z,16.83
2023-03-21T23:24:33.848Z,16.57
2023-03-21T23:29:56.777Z,17.47
2023-03-21T23:35:18.743Z,14.77
2023-03-21T23:40:40.646Z,20.80
2023-03-21T23:46:03.154Z,19.37
2023-03-21T23:51:25.146Z,13.73
2023-03-21T23:56:46.553Z,14.47
